createdAt,value
2023-07-25T00:00:50.283Z,70.28
2023-07-25T00:03:27.197Z,70.34
2023-07-25T00:05:55.266Z,70.59
2023-07-25T00:08:23.450Z,70.56
2023-07-25T00:10:51.591Z,70.50
2023-07-25T00:13:20.747Z,70.62
2023-07-25T00:15:48.900Z,70.35
2023-07-25T00:18:17.175Z,70.42
2023-07-25T00:20:45.258Z,70.54
2023-07-25T00:23:13.432Z,70.72
2023-07-25T00:25:41.637Z,70.64
2023-07-25T00:28:09.764Z,70.61
2023-07-25T00:30:37.941Z,70.67
2023-07-25T00:33:06.703Z,70.63
2023-07-25T00:35:34.940Z,70.81
2023-07-25T00:38:06.038Z,70.87
2023-07-25T00:40:39.007Z,70.75
2023-07-25T00:43:07.169Z,70.78
2023-07-25T00:45:35.471Z,70.87
2023-07-25T00:48:04.571Z,71.12
2023-07-25T00:50:32.939Z,70.93
2023-07-25T00:53:02.838Z,71.00
2023-07-25T00:55:31.210Z,71.05
2023-07-25T00:57:59.502Z,70.85
2023-07-25T01:00:27.850Z,71.03
2023-07-25T01:02:56.173Z,70.89
2023-07-25T01:05:25.908Z,70.93
2023-07-25T01:07:54.137Z,71.01
2023-07-25T01:10:22.223Z,71.04
2023-07-25T01:12:50.454Z,70.95
2023-07-25T01:15:18.685Z,71.12
2023-07-25T01:17:46.881Z,71.30
2023-07-25T01:20:15.596Z,71.32
2023-07-25T01:22:46.240Z,71.20
2023-07-25T01:25:15.201Z,71.12
2023-07-25T01:27:43.491Z,71.26
2023-07-25T01:30:11.869Z,71.40
2023-07-25T01:32:40.064Z,71.45
2023-07-25T01:35:08.695Z,71.46
2023-07-25T01:37:36.903Z,71.49
2023-07-25T01:40:05.381Z,71.55
2023-07-25T01:42:33.597Z,71.61
2023-07-25T01:45:01.790Z,71.58
2023-07-25T01:47:31.640Z,71.70
2023-07-25T01:49:59.848Z,71.64
2023-07-25T01:52:27.992Z,71.56
2023-07-25T01:54:56.130Z,71.71
2023-07-25T01:57:24.308Z,71.76
2023-07-25T01:59:53.058Z,71.69
2023-07-25T02:02:21.351Z,71.80
2023-07-25T02:04:49.631Z,72.06
2023-07-25T02:07:17.703Z,72.04
2023-07-25T02:09:45.832Z,71.66
2023-07-25T02:12:13.913Z,71.85
2023-07-25T02:14:42.000Z,71.92
2023-07-25T02:17:10.291Z,71.89
2023-07-25T02:19:39.461Z,71.96
2023-07-25T02:22:07.787Z,71.76
2023-07-25T02:24:36.931Z,71.92
2023-07-25T02:27:05.371Z,71.99
2023-07-25T02:29:33.808Z,71.97
2023-07-25T02:32:01.873Z,72.27
2023-07-25T02:34:29.981Z,72.15
2023-07-25T02:36:58.197Z,72.10
2023-07-25T02:39:26.268Z,72.35
2023-07-25T02:41:54.445Z,72.13
2023-07-25T02:44:22.592Z,71.97
2023-07-25T02:46:50.813Z,72.09
2023-07-25T02:49:18.961Z,72.27
2023-07-25T02:51:47.104Z,72.25
2023-07-25T02:54:15.193Z,72.03
2023-07-25T02:56:43.281Z,72.02
2023-07-25T02:59:11.391Z,72.11
2023-07-25T03:01:39.645Z,72.13
2023-07-25T03:04:07.870Z,72.28
2023-07-25T03:06:35.968Z,71.96
2023-07-25T03:09:04.692Z,71.94
2023-07-25T03:11:33.042Z,72.18
2023-07-25T03:14:01.600Z,72.16
2023-07-25T03:16:30.330Z,72.00
2023-07-25T03:18:58.509Z,71.97
2023-07-25T03:21:26.721Z,71.99
2023-07-25T03:23:54.930Z,72.08
2023-07-25T03:26:23.396Z,71.86
2023-07-25T03:28:51.549Z,71.92
2023-07-25T03:31:19.688Z,71.88
2023-07-25T03:33:47.977Z,71.93
2023-07-25T03:36:16.066Z,71.87
2023-07-25T03:38:44.247Z,71.77
2023-07-25T03:41:12.427Z,72.03
2023-07-25T03:43:40.479Z,71.90
2023-07-25T03:46:08.901Z,71.61
2023-07-25T03:48:37.092Z,71.79
2023-07-25T03:51:05.220Z,71.90
2023-07-25T03:53:33.460Z,72.11
2023-07-25T03:56:01.830Z,71.89
2023-07-25T03:58:30.025Z,71.88
2023-07-25T04:00:58.146Z,72.04
2023-07-25T04:03:27.700Z,72.05
2023-07-25T04:05:56.346Z,72.00
2023-07-25T04:08:24.634Z,72.10
2023-07-25T04:10:52.744Z,71.98
2023-07-25T04:13:20.805Z,72.05
2023-07-25T04:15:49.165Z,71.87
2023-07-25T04:18:17.636Z,71.97
2023-07-25T04:20:45.785Z,72.14
2023-07-25T04:23:13.912Z,72.08
2023-07-25T04:25:41.997Z,71.99
2023-07-25T04:28:10.990Z,72.18
2023-07-25T04:30:39.195Z,72.28
2023-07-25T04:33:07.911Z,72.21
2023-07-25T04:35:36.316Z,72.23
2023-07-25T04:38:04.426Z,72.07
2023-07-25T04:40:32.782Z,72.19
2023-07-25T04:43:00.909Z,72.06
2023-07-25T04:45:29.100Z,71.98
2023-07-25T04:47:57.295Z,71.94
2023-07-25T04:50:25.420Z,72.07
2023-07-25T04:52:54.355Z,72.08
2023-07-25T04:55:22.457Z,71.98
2023-07-25T04:57:51.730Z,72.04
2023-07-25T05:00:19.970Z,72.07
2023-07-25T05:02:48.209Z,71.99
2023-07-25T05:05:16.517Z,72.20
2023-07-25T05:07:44.629Z,71.98
2023-07-25T05:10:12.770Z,71.89
2023-07-25T05:12:40.903Z,71.91
2023-07-25T05:15:09.266Z,72.16
2023-07-25T05:17:37.498Z,72.27
2023-07-25T05:20:06.638Z,71.99
2023-07-25T05:22:38.049Z,71.90
2023-07-25T05:25:06.567Z,71.98
2023-07-25T05:27:34.932Z,72.06
2023-07-25T05:30:04.110Z,72.00
2023-07-25T05:32:32.982Z,72.07
2023-07-25T05:35:05.947Z,71.99
2023-07-25T05:37:39.305Z,71.93
2023-07-25T05:40:08.040Z,71.90
2023-07-25T05:42:36.489Z,71.80
2023-07-25T05:45:07.892Z,71.61
2023-07-25T05:47:36.059Z,71.76
2023-07-25T05:50:04.579Z,71.58
2023-07-25T05:52:32.846Z,71.81
2023-07-25T05:55:00.921Z,71.49
2023-07-25T05:57:29.206Z,71.51
2023-07-25T05:59:57.319Z,71.64
2023-07-25T06:02:25.562Z,71.51
2023-07-25T06:04:53.756Z,71.67
2023-07-25T06:07:23.838Z,71.59
2023-07-25T06:09:52.340Z,71.76
2023-07-25T06:12:21.025Z,71.61
2023-07-25T06:14:49.441Z,71.43
2023-07-25T06:17:20.656Z,71.31
2023-07-25T06:19:49.380Z,71.30
2023-07-25T06:22:17.823Z,71.13
2023-07-25T06:24:47.670Z,71.38
2023-07-25T06:27:16.191Z,71.15
2023-07-25T06:29:44.708Z,71.28
2023-07-25T06:32:13.061Z,70.97
2023-07-25T06:34:41.888Z,71.18
2023-07-25T06:37:13.043Z,71.09
2023-07-25T06:39:41.179Z,71.01
2023-07-25T06:42:09.309Z,70.95
2023-07-25T06:44:38.101Z,70.84
2023-07-25T06:47:06.686Z,70.78
2023-07-25T06:49:34.748Z,70.77
2023-07-25T06:52:02.942Z,70.71
2023-07-25T06:54:31.255Z,70.65
2023-07-25T06:56:59.662Z,70.54
2023-07-25T06:59:30.974Z,70.49
2023-07-25T07:01:59.249Z,70.47
2023-07-25T07:04:27.443Z,70.43
2023-07-25T07:06:55.690Z,70.15
2023-07-25T07:09:23.800Z,70.20
2023-07-25T07:11:51.944Z,70.25
2023-07-25T07:14:20.061Z,70.22
2023-07-25T07:16:48.309Z,70.13
2023-07-25T07:19:16.647Z,70.12
2023-07-25T07:21:44.736Z,70.13
2023-07-25T07:24:13.223Z,70.20
2023-07-25T07:26:41.413Z,69.96
2023-07-25T07:29:12.183Z,69.74
2023-07-25T07:31:40.461Z,69.58
2023-07-25T07:34:17.560Z,69.72
2023-07-25T07:36:46.363Z,69.48
2023-07-25T07:39:14.849Z,69.72
2023-07-25T07:41:43.039Z,69.90
2023-07-25T07:44:11.110Z,69.58
2023-07-25T07:46:39.283Z,69.41
2023-07-25T07:49:07.465Z,69.11
2023-07-25T07:51:35.570Z,69.33
2023-07-25T07:54:03.723Z,69.14
2023-07-25T07:56:31.992Z,68.93
2023-07-25T07:59:00.128Z,68.94
2023-07-25T08:01:28.988Z,69.05
2023-07-25T08:03:57.326Z,68.97
2023-07-25T08:06:25.627Z,68.85
2023-07-25T08:08:53.740Z,68.89
2023-07-25T08:11:21.851Z,68.77
2023-07-25T08:13:50.066Z,68.62
2023-07-25T08:16:18.185Z,68.48
2023-07-25T08:18:46.305Z,68.51
2023-07-25T08:21:14.481Z,68.46
2023-07-25T08:23:42.600Z,68.58
2023-07-25T08:26:10.914Z,68.30
2023-07-25T08:28:39.092Z,68.17
2023-07-25T08:31:07.763Z,68.30
2023-07-25T08:33:36.095Z,68.19
2023-07-25T08:36:07.318Z,68.00
2023-07-25T08:38:35.617Z,68.23
2023-07-25T08:41:12.168Z,68.07
2023-07-25T08:43:41.701Z,67.73
2023-07-25T08:46:11.377Z,67.56
2023-07-25T08:48:43.090Z,67.67
2023-07-25T08:51:24.034Z,67.61
2023-07-25T08:54:29.317Z,67.18
2023-07-25T08:56:57.666Z,66.98
2023-07-25T08:59:26.856Z,66.97
2023-07-25T09:01:55.950Z,66.87
2023-07-25T09:04:26.765Z,66.59
2023-07-25T09:06:55.201Z,66.61
2023-07-25T09:09:24.836Z,66.54
2023-07-25T09:11:54.457Z,66.37
2023-07-25T09:14:22.588Z,66.23
2023-07-25T09:16:50.794Z,66.21
2023-07-25T09:19:19.097Z,66.05
2023-07-25T09:21:59.111Z,66.01
2023-07-25T09:24:37.981Z,66.10
2023-07-25T09:27:17.833Z,65.91
2023-07-25T09:29:47.964Z,65.81
2023-07-25T09:32:27.288Z,65.56
2023-07-25T09:35:03.546Z,65.54
2023-07-25T09:37:31.815Z,65.34
2023-07-25T09:40:00.070Z,65.03
2023-07-25T09:42:28.388Z,64.82
2023-07-25T09:44:57.455Z,64.76
2023-07-25T09:47:27.820Z,64.81
2023-07-25T09:49:57.507Z,64.89
2023-07-25T09:52:26.814Z,64.64
2023-07-25T09:54:55.120Z,64.73
2023-07-25T09:57:23.429Z,64.44
2023-07-25T09:59:52.549Z,64.41
2023-07-25T10:02:21.077Z,64.22
2023-07-25T10:04:50.479Z,64.11
2023-07-25T10:07:19.201Z,64.21
2023-07-25T10:09:48.775Z,64.06
2023-07-25T10:12:16.927Z,64.08
2023-07-25T10:14:45.770Z,63.98
2023-07-25T10:17:14.352Z,63.86
2023-07-25T10:19:47.873Z,63.70
2023-07-25T10:22:16.240Z,63.75
2023-07-25T10:24:44.936Z,63.83
2023-07-25T10:27:14.027Z,63.83
2023-07-25T10:29:43.477Z,63.67
2023-07-25T10:32:16.356Z,63.67
2023-07-25T10:34:46.324Z,63.73
2023-07-25T10:37:20.756Z,63.78
2023-07-25T10:40:14.219Z,63.51
2023-07-25T10:45:28.526Z,63.36
2023-07-25T10:47:59.751Z,63.21
2023-07-25T10:50:49.116Z,63.09
2023-07-25T10:53:22.827Z,62.88
2023-07-25T10:56:09.292Z,62.85
2023-07-25T10:58:58.085Z,62.72
2023-07-25T11:01:34.199Z,62.71
2023-07-25T11:04:41.441Z,62.64
2023-07-25T11:07:12.378Z,62.64
2023-07-25T11:09:43.252Z,62.73
2023-07-25T11:12:12.761Z,62.82
2023-07-25T11:14:43.517Z,62.68
2023-07-25T11:17:14.996Z,62.60
2023-07-25T11:19:43.168Z,62.43
2023-07-25T11:22:12.960Z,62.59
2023-07-25T11:24:46.048Z,62.29
2023-07-25T11:27:15.822Z,62.19
2023-07-25T11:29:44.212Z,61.99
2023-07-25T11:32:12.438Z,61.89
2023-07-25T11:34:41.235Z,61.91
2023-07-25T11:37:13.157Z,61.61
2023-07-25T11:39:41.308Z,61.81
2023-07-25T11:42:09.858Z,61.79
2023-07-25T11:44:38.621Z,61.86
2023-07-25T11:47:07.068Z,61.76
2023-07-25T11:49:49.285Z,61.51
2023-07-25T11:52:20.916Z,61.56
2023-07-25T11:54:49.408Z,61.50
2023-07-25T11:57:17.610Z,61.65
2023-07-25T11:59:45.875Z,61.26
2023-07-25T12:02:14.087Z,61.34
2023-07-25T12:04:45.044Z,61.14
2023-07-25T12:07:14.846Z,61.18
2023-07-25T12:09:53.365Z,61.15
2023-07-25T12:12:22.373Z,61.16
2023-07-25T12:14:59.090Z,61.49
2023-07-25T12:17:46.117Z,61.56
2023-07-25T12:20:21.342Z,61.36
2023-07-25T12:22:49.670Z,61.56
2023-07-25T12:25:19.335Z,61.38
2023-07-25T12:27:49.955Z,61.43
2023-07-25T12:30:18.143Z,61.47
2023-07-25T12:32:46.328Z,61.44
2023-07-25T12:35:14.592Z,61.54
2023-07-25T12:37:42.878Z,61.57
2023-07-25T12:40:11.534Z,61.67
2023-07-25T12:42:39.789Z,61.87
2023-07-25T12:45:11.029Z,62.05
2023-07-25T12:47:40.053Z,62.03
2023-07-25T12:50:10.028Z,62.15
2023-07-25T12:52:38.445Z,62.10
2023-07-25T12:55:07.346Z,62.28
2023-07-25T12:57:35.769Z,62.29
2023-07-25T13:00:08.502Z,62.19
2023-07-25T13:02:38.280Z,62.13
2023-07-25T13:05:08.171Z,62.11
2023-07-25T13:07:36.709Z,62.33
2023-07-25T13:10:08.163Z,62.33
2023-07-25T13:12:36.420Z,62.30
2023-07-25T13:15:05.932Z,62.13
2023-07-25T13:17:35.199Z,62.13
2023-07-25T13:20:08.437Z,62.32
2023-07-25T13:22:37.418Z,62.43
2023-07-25T13:25:06.333Z,62.27
2023-07-25T13:27:34.546Z,62.28
2023-07-25T13:30:02.769Z,62.56
2023-07-25T13:32:32.021Z,62.68
2023-07-25T13:35:00.425Z,62.51
2023-07-25T13:37:28.659Z,62.73
2023-07-25T13:39:56.769Z,62.35
2023-07-25T13:42:25.571Z,62.32
2023-07-25T13:44:53.751Z,62.20
2023-07-25T13:47:22.184Z,61.94
2023-07-25T13:49:51.094Z,61.61
2023-07-25T13:52:19.168Z,61.79
2023-07-25T13:54:47.360Z,61.83
2023-07-25T13:57:15.525Z,61.44
2023-07-25T13:59:43.660Z,61.60
2023-07-25T14:02:11.858Z,61.59
2023-07-25T14:04:40.912Z,61.49
2023-07-25T14:07:09.476Z,61.43
2023-07-25T14:09:37.629Z,61.23
2023-07-25T14:12:06.737Z,61.37
2023-07-25T14:14:35.991Z,61.36
2023-07-25T14:17:04.737Z,60.98
2023-07-25T14:19:32.896Z,61.14
2023-07-25T14:22:01.668Z,60.84
2023-07-25T14:24:31.136Z,60.58
2023-07-25T14:26:59.326Z,60.36
2023-07-25T14:29:27.466Z,60.26
2023-07-25T14:31:55.833Z,60.18
2023-07-25T14:34:25.187Z,60.30
2023-07-25T14:36:53.352Z,60.15
2023-07-25T14:39:21.405Z,59.95
2023-07-25T14:41:49.497Z,59.69
2023-07-25T14:44:17.594Z,59.68
2023-07-25T14:46:45.801Z,59.59
2023-07-25T14:49:13.958Z,59.58
2023-07-25T14:51:42.116Z,59.48
2023-07-25T14:54:10.229Z,59.31
2023-07-25T14:56:38.620Z,59.31
2023-07-25T14:59:07.158Z,59.18
2023-07-25T15:01:35.341Z,58.99
2023-07-25T15:04:03.599Z,59.03
2023-07-25T15:06:32.166Z,59.10
2023-07-25T15:09:01.584Z,59.17
2023-07-25T15:11:30.076Z,59.18
2023-07-25T15:13:58.219Z,59.34
2023-07-25T15:16:26.381Z,59.03
2023-07-25T15:18:54.819Z,59.15
2023-07-25T15:21:22.949Z,59.09
2023-07-25T15:23:51.072Z,59.13
2023-07-25T15:26:19.153Z,59.12
2023-07-25T15:28:47.225Z,58.75
2023-07-25T15:31:15.541Z,58.68
2023-07-25T15:33:43.680Z,58.77
2023-07-25T15:36:11.828Z,58.75
2023-07-25T15:38:39.941Z,58.65
2023-07-25T15:41:08.043Z,58.47
2023-07-25T15:43:36.117Z,58.31
2023-07-25T15:46:04.269Z,58.31
2023-07-25T15:48:32.594Z,58.28
2023-07-25T15:51:00.808Z,58.18
2023-07-25T15:53:28.990Z,58.15
2023-07-25T15:55:57.342Z,58.00
2023-07-25T15:58:25.506Z,57.88
2023-07-25T16:00:53.698Z,57.96
2023-07-25T16:03:22.034Z,57.80
2023-07-25T16:05:50.450Z,58.02
2023-07-25T16:08:18.863Z,58.01
2023-07-25T16:10:47.079Z,57.73
2023-07-25T16:13:15.788Z,57.90
2023-07-25T16:15:47.460Z,57.84
2023-07-25T16:18:15.757Z,57.76
2023-07-25T16:20:44.337Z,57.92
2023-07-25T16:23:12.528Z,58.09
2023-07-25T16:25:40.633Z,57.99
2023-07-25T16:28:08.858Z,57.75
2023-07-25T16:30:37.710Z,57.76
2023-07-25T16:33:05.906Z,57.63
2023-07-25T16:35:34.018Z,57.24
2023-07-25T16:38:03.382Z,57.13
2023-07-25T16:40:31.837Z,56.97
2023-07-25T16:43:00.062Z,56.85
2023-07-25T16:45:28.167Z,56.40
2023-07-25T16:47:56.936Z,56.24
2023-07-25T16:50:25.400Z,56.33
2023-07-25T16:52:53.669Z,56.29
2023-07-25T16:55:21.929Z,55.87
2023-07-25T16:57:50.100Z,55.65
2023-07-25T17:00:18.588Z,55.60
2023-07-25T17:02:46.730Z,55.62
2023-07-25T17:05:14.945Z,55.52
2023-07-25T17:07:43.336Z,55.54
2023-07-25T17:10:11.504Z,55.17
2023-07-25T17:12:39.580Z,55.04
2023-07-25T17:15:08.269Z,54.92
2023-07-25T17:17:36.423Z,54.71
2023-07-25T17:20:05.579Z,54.66
2023-07-25T17:22:33.825Z,54.53
2023-07-25T17:25:01.980Z,54.30
2023-07-25T17:27:30.204Z,54.16
2023-07-25T17:29:58.420Z,53.95
2023-07-25T17:32:27.261Z,53.94
2023-07-25T17:34:55.560Z,53.60
2023-07-25T17:37:23.697Z,53.49
2023-07-25T17:39:51.854Z,53.23
2023-07-25T17:42:20.056Z,53.03
2023-07-25T17:44:48.205Z,52.94
2023-07-25T17:47:16.388Z,52.94
2023-07-25T17:49:44.547Z,52.91
2023-07-25T17:52:12.746Z,52.71
2023-07-25T17:54:40.943Z,52.53
2023-07-25T17:57:09.071Z,52.42
2023-07-25T17:59:37.245Z,52.52
2023-07-25T18:02:05.650Z,52.62
2023-07-25T18:04:34.361Z,52.48
2023-07-25T18:07:02.465Z,52.48
2023-07-25T18:09:30.688Z,52.54
2023-07-25T18:11:58.882Z,52.44
2023-07-25T18:14:27.115Z,52.57
2023-07-25T18:16:55.244Z,52.53
2023-07-25T18:19:23.382Z,52.64
2023-07-25T18:21:52.095Z,52.40
2023-07-25T18:24:20.389Z,52.42
2023-07-25T18:26:49.696Z,52.47
2023-07-25T18:29:17.914Z,52.33
2023-07-25T18:31:46.093Z,52.32
2023-07-25T18:34:14.697Z,52.40
2023-07-25T18:36:42.831Z,52.50
2023-07-25T18:39:14.962Z,52.55
2023-07-25T18:41:43.165Z,52.38
2023-07-25T18:44:11.278Z,52.46
2023-07-25T18:46:39.436Z,52.54
2023-07-25T18:49:07.713Z,52.50
2023-07-25T18:51:35.900Z,52.74
2023-07-25T18:54:04.185Z,52.40
2023-07-25T18:56:33.386Z,52.66
2023-07-25T18:59:02.715Z,52.57
2023-07-25T19:01:34.196Z,52.77
2023-07-25T19:04:02.629Z,52.88
2023-07-25T19:06:31.268Z,52.89
2023-07-25T19:08:59.907Z,52.65
2023-07-25T19:11:28.172Z,52.85
2023-07-25T19:13:56.484Z,53.05
2023-07-25T19:16:24.725Z,53.14
2023-07-25T19:18:52.926Z,53.16
2023-07-25T19:21:21.006Z,53.42
2023-07-25T19:23:49.144Z,53.37
2023-07-25T19:26:17.336Z,53.49
2023-07-25T19:28:45.612Z,53.67
2023-07-25T19:31:13.757Z,53.55
2023-07-25T19:33:41.973Z,53.47
2023-07-25T19:36:10.136Z,53.60
2023-07-25T19:38:38.347Z,54.11
2023-07-25T19:41:15.400Z,54.13
2023-07-25T19:43:43.765Z,54.22
2023-07-25T19:46:11.902Z,54.05
2023-07-25T19:48:40.136Z,54.33
2023-07-25T19:51:10.525Z,54.43
2023-07-25T19:53:39.354Z,54.76
2023-07-25T19:56:12.445Z,54.80
2023-07-25T19:58:44.818Z,54.98
2023-07-25T20:01:14.226Z,54.87
2023-07-25T20:03:42.692Z,54.93
2023-07-25T20:06:11.041Z,55.12
2023-07-25T20:08:39.252Z,55.19
2023-07-25T20:11:08.641Z,55.33
2023-07-25T20:13:36.984Z,55.43
2023-07-25T20:16:05.459Z,55.61
2023-07-25T20:18:33.844Z,55.93
2023-07-25T20:21:09.885Z,56.12
2023-07-25T20:23:39.527Z,56.09
2023-07-25T20:26:07.909Z,55.98
2023-07-25T20:28:36.042Z,56.18
2023-07-25T20:37:36.008Z,56.20
2023-07-25T20:40:06.460Z,56.43
2023-07-25T20:42:36.043Z,56.34
2023-07-25T20:45:04.419Z,56.41
2023-07-25T20:47:34.576Z,56.59
2023-07-25T20:50:05.356Z,56.70
2023-07-25T20:52:33.492Z,56.66
2023-07-25T20:55:01.936Z,56.67
2023-07-25T20:57:31.213Z,56.61
2023-07-25T20:59:59.355Z,56.78
2023-07-25T21:02:27.764Z,56.87
2023-07-25T21:04:55.915Z,56.77
2023-07-25T21:07:24.030Z,56.99
2023-07-25T21:09:52.233Z,57.01
2023-07-25T21:12:20.403Z,56.92
2023-07-25T21:14:48.513Z,57.20
2023-07-25T21:17:16.726Z,57.33
2023-07-25T21:19:44.834Z,57.42
2023-07-25T21:22:13.087Z,57.60
2023-07-25T21:24:41.804Z,57.19
2023-07-25T21:27:09.905Z,57.23
2023-07-25T21:29:38.040Z,57.21
2023-07-25T21:32:06.369Z,57.45
2023-07-25T21:34:34.535Z,57.47
2023-07-25T21:37:02.793Z,57.50
2023-07-25T21:39:30.927Z,57.44
2023-07-25T21:41:59.099Z,57.55
2023-07-25T21:44:27.294Z,57.72
2023-07-25T21:46:55.512Z,57.54
2023-07-25T21:49:24.147Z,57.48
2023-07-25T21:51:52.381Z,57.62
2023-07-25T21:54:20.575Z,57.68
2023-07-25T21:56:51.017Z,57.79
2023-07-25T21:59:19.552Z,57.68
2023-07-25T22:01:47.755Z,57.69
2023-07-25T22:04:15.947Z,57.96
2023-07-25T22:06:44.052Z,57.92
2023-07-25T22:09:12.225Z,57.85
2023-07-25T22:11:40.425Z,57.93
2023-07-25T22:14:08.726Z,58.04
2023-07-25T22:16:37.125Z,58.06
2023-07-25T22:19:05.490Z,58.18
2023-07-25T22:21:33.589Z,58.35
2023-07-25T22:24:01.797Z,58.23
2023-07-25T22:26:30.288Z,58.20
2023-07-25T22:28:58.685Z,58.28
2023-07-25T22:31:26.925Z,58.26
2023-07-25T22:33:55.094Z,58.39
2023-07-25T22:36:23.156Z,58.51
2023-07-25T22:38:51.400Z,58.21
2023-07-25T22:41:19.832Z,58.39
2023-07-25T22:43:47.927Z,58.83
2023-07-25T22:46:16.082Z,58.73
2023-07-25T22:48:44.317Z,58.83
2023-07-25T22:51:12.478Z,58.85
2023-07-25T22:53:40.604Z,59.08
2023-07-25T22:56:08.694Z,59.01
2023-07-25T22:58:36.842Z,59.23
2023-07-25T23:01:05.076Z,59.13
2023-07-25T23:03:36.256Z,59.20
2023-07-25T23:06:04.483Z,59.20
2023-07-25T23:08:32.544Z,59.21
2023-07-25T23:11:00.677Z,59.45
2023-07-25T23:13:28.950Z,59.46
2023-07-25T23:15:57.150Z,59.62
2023-07-25T23:18:25.288Z,59.76
2023-07-25T23:20:53.458Z,59.82
2023-07-25T23:23:21.594Z,59.87
2023-07-25T23:25:49.710Z,59.94
2023-07-25T23:28:17.915Z,59.97
2023-07-25T23:30:46.101Z,60.05
2023-07-25T23:33:14.318Z,60.32
2023-07-25T23:35:42.490Z,60.16
2023-07-25T23:38:10.669Z,60.23
2023-07-25T23:40:39.023Z,60.51
2023-07-25T23:43:07.215Z,60.56
2023-07-25T23:45:35.296Z,60.43
2023-07-25T23:48:03.684Z,60.47
2023-07-25T23:50:31.972Z,60.52
2023-07-25T23:53:00.096Z,60.74
2023-07-25T23:55:28.382Z,60.90
2023-07-25T23:57:56.544Z,60.77
